sensor_id;sensor_type;location;lat;lon;timestamp;P1;durP1;ratioP1;P2;durP2;ratioP2
43803;SDS011;29430;52.924;-2.388;2023-11-18T00:01:09;8.32;;;0.75;;
43803;SDS011;29430;52.924;-2.388;2023-11-18T00:06:01;3.78;;;0.60;;
43803;SDS011;29430;52.924;-2.388;2023-11-18T00:10:53;7.18;;;0.35;;
43803;SDS011;29430;52.924;-2.388;2023-11-18T00:15:45;6.75;;;0.40;;
43803;SDS011;29430;52.924;-2.388;2023-11-18T00:20:39;3.03;;;0.40;;
43803;SDS011;29430;52.924;-2.388;2023-11-18T00:25:31;4.60;;;0.30;;
43803;SDS011;29430;52.924;-2.388;2023-11-18T00:30:25;4.25;;;0.30;;
43803;SDS011;29430;52.924;-2.388;2023-11-18T00:35:17;5.28;;;0.38;;
43803;SDS011;29430;52.924;-2.388;2023-11-18T00:40:08;3.88;;;0.30;;
43803;SDS011;29430;52.924;-2.388;2023-11-18T00:45:01;3.28;;;0.20;;
43803;SDS011;29430;52.924;-2.388;2023-11-18T00:49:52;1.80;;;0.20;;
43803;SDS011;29430;52.924;-2.388;2023-11-18T00:54:46;3.78;;;0.20;;
43803;SDS011;29430;52.924;-2.388;2023-11-18T00:59:41;5.50;;;0.70;;
43803;SDS011;29430;52.924;-2.388;2023-11-18T01:04:33;1.80;;;0.30;;
43803;SDS011;29430;52.924;-2.388;2023-11-18T01:09:25;3.42;;;0.60;;
43803;SDS011;29430;52.924;-2.388;2023-11-18T01:14:18;3.95;;;0.52;;
43803;SDS011;29430;52.924;-2.388;2023-11-18T01:19:10;7.53;;;0.50;;
43803;SDS011;29430;52.924;-2.388;2023-11-18T01:24:02;2.30;;;0.60;;
43803;SDS011;29430;52.924;-2.388;2023-11-18T01:28:54;7.22;;;0.73;;
43803;SDS011;29430;52.924;-2.388;2023-11-18T01:33:47;5.18;;;1.30;;
43803;SDS011;29430;52.924;-2.388;2023-11-18T01:38:41;3.75;;;0.52;;
43803;SDS011;29430;52.924;-2.388;2023-11-18T01:43:33;3.60;;;0.55;;
43803;SDS011;29430;52.924;-2.388;2023-11-18T01:48:25;2.78;;;0.40;;
43803;SDS011;29430;52.924;-2.388;2023-11-18T01:53:18;4.13;;;0.50;;
43803;SDS011;29430;52.924;-2.388;2023-11-18T01:58:09;4.93;;;0.52;;
43803;SDS011;29430;52.924;-2.388;2023-11-18T02:03:02;3.60;;;0.50;;
43803;SDS011;29430;52.924;-2.388;2023-11-18T02:07:55;1.85;;;0.50;;
43803;SDS011;29430;52.924;-2.388;2023-11-18T02:13:03;2.08;;;0.50;;
43803;SDS011;29430;52.924;-2.388;2023-11-18T02:18:02;3.47;;;0.50;;
43803;SDS011;29430;52.924;-2.388;2023-11-18T02:22:57;1.80;;;0.50;;
43803;SDS011;29430;52.924;-2.388;2023-11-18T02:27:50;2.67;;;0.43;;
43803;SDS011;29430;52.924;-2.388;2023-11-18T02:32:52;1.83;;;0.40;;
43803;SDS011;29430;52.924;-2.388;2023-11-18T02:37:50;3.65;;;0.50;;
43803;SDS011;29430;52.924;-2.388;2023-11-18T02:42:46;1.60;;;0.40;;
43803;SDS011;29430;52.924;-2.388;2023-11-18T02:47:40;1.77;;;0.38;;
43803;SDS011;29430;52.924;-2.388;2023-11-18T02:52:32;2.70;;;0.30;;
43803;SDS011;29430;52.924;-2.388;2023-11-18T02:57:26;1.02;;;0.30;;
43803;SDS011;29430;52.924;-2.388;2023-11-18T03:02:18;1.42;;;0.45;;
43803;SDS011;29430;52.924;-2.388;2023-11-18T03:07:12;1.63;;;0.30;;
43803;SDS011;29430;52.924;-2.388;2023-11-18T03:12:04;2.55;;;0.35;;
43803;SDS011;29430;52.924;-2.388;2023-11-18T03:16:57;0.77;;;0.20;;
43803;SDS011;29430;52.924;-2.388;2023-11-18T03:21:52;1.67;;;0.30;;
43803;SDS011;29430;52.924;-2.388;2023-11-18T03:26:44;1.40;;;0.20;;
43803;SDS011;29430;52.924;-2.388;2023-11-18T03:31:36;0.90;;;0.28;;
43803;SDS011;29430;52.924;-2.388;2023-11-18T03:36:28;0.65;;;0.20;;
43803;SDS011;29430;52.924;-2.388;2023-11-18T03:41:20;0.70;;;0.10;;
43803;SDS011;29430;52.924;-2.388;2023-11-18T03:46:14;1.58;;;0.20;;
43803;SDS011;29430;52.924;-2.388;2023-11-18T03:51:07;0.45;;;0.20;;
43803;SDS011;29430;52.924;-2.388;2023-11-18T03:55:59;0.35;;;0.10;;
43803;SDS011;29430;52.924;-2.388;2023-11-18T04:00:50;0.30;;;0.10;;
43803;SDS011;29430;52.924;-2.388;2023-11-18T04:05:42;0.40;;;0.10;;
43803;SDS011;29430;52.924;-2.388;2023-11-18T04:10:34;0.40;;;0.17;;
43803;SDS011;29430;52.924;-2.388;2023-11-18T04:15:25;0.73;;;0.20;;
43803;SDS011;29430;52.924;-2.388;2023-11-18T04:20:18;0.70;;;0.30;;
43803;SDS011;29430;52.924;-2.388;2023-11-18T04:25:10;1.65;;;0.30;;
43803;SDS011;29430;52.924;-2.388;2023-11-18T04:30:03;1.90;;;0.30;;
43803;SDS011;29430;52.924;-2.388;2023-11-18T04:34:55;0.93;;;0.20;;
43803;SDS011;29430;52.924;-2.388;2023-11-18T04:39:47;0.40;;;0.10;;
43803;SDS011;29430;52.924;-2.388;2023-11-18T04:44:39;0.57;;;0.20;;
43803;SDS011;29430;52.924;-2.388;2023-11-18T04:49:30;0.32;;;0.15;;
43803;SDS011;29430;52.924;-2.388;2023-11-18T04:54:22;0.40;;;0.20;;
43803;SDS011;29430;52.924;-2.388;2023-11-18T04:59:14;0.70;;;0.20;;
43803;SDS011;29430;52.924;-2.388;2023-11-18T05:04:05;0.65;;;0.20;;
43803;SDS011;29430;52.924;-2.388;2023-11-18T05:08:59;0.45;;;0.20;;
43803;SDS011;29430;52.924;-2.388;2023-11-18T05:13:51;0.38;;;0.10;;
43803;SDS011;29430;52.924;-2.388;2023-11-18T05:18:43;0.63;;;0.20;;
43803;SDS011;29430;52.924;-2.388;2023-11-18T05:23:35;0.50;;;0.30;;
43803;SDS011;29430;52.924;-2.388;2023-11-18T05:28:27;0.63;;;0.30;;
43803;SDS011;29430;52.924;-2.388;2023-11-18T05:33:19;0.60;;;0.30;;
43803;SDS011;29430;52.924;-2.388;2023-11-18T05:38:11;0.80;;;0.40;;
43803;SDS011;29430;52.924;-2.388;2023-11-18T05:43:03;1.15;;;0.30;;
43803;SDS011;29430;52.924;-2.388;2023-11-18T05:47:57;0.80;;;0.30;;
43803;SDS011;29430;52.924;-2.388;2023-11-18T05:52:50;0.75;;;0.30;;
43803;SDS011;29430;52.924;-2.388;2023-11-18T05:57:42;0.70;;;0.30;;
43803;SDS011;29430;52.924;-2.388;2023-11-18T06:02:36;0.82;;;0.32;;
43803;SDS011;29430;52.924;-2.388;2023-11-18T06:07:31;0.85;;;0.40;;
43803;SDS011;29430;52.924;-2.388;2023-11-18T06:12:22;1.58;;;0.50;;
43803;SDS011;29430;52.924;-2.388;2023-11-18T06:17:14;0.90;;;0.40;;
43803;SDS011;29430;52.924;-2.388;2023-11-18T06:22:06;2.28;;;0.40;;
43803;SDS011;29430;52.924;-2.388;2023-11-18T06:26:58;1.05;;;0.40;;
43803;SDS011;29430;52.924;-2.388;2023-11-18T06:31:51;2.55;;;0.50;;
43803;SDS011;29430;52.924;-2.388;2023-11-18T06:36:42;1.23;;;0.47;;
43803;SDS011;29430;52.924;-2.388;2023-11-18T06:41:34;1.27;;;0.50;;
43803;SDS011;29430;52.924;-2.388;2023-11-18T06:46:33;1.75;;;0.50;;
43803;SDS011;29430;52.924;-2.388;2023-11-18T06:51:26;1.20;;;0.30;;
43803;SDS011;29430;52.924;-2.388;2023-11-18T06:56:19;1.15;;;0.50;;
43803;SDS011;29430;52.924;-2.388;2023-11-18T07:01:13;1.30;;;0.55;;
43803;SDS011;29430;52.924;-2.388;2023-11-18T07:06:08;2.78;;;0.52;;
43803;SDS011;29430;52.924;-2.388;2023-11-18T07:11:01;3.88;;;0.60;;
43803;SDS011;29430;52.924;-2.388;2023-11-18T07:15:53;2.42;;;0.70;;
43803;SDS011;29430;52.924;-2.388;2023-11-18T07:20:48;2.50;;;0.50;;
43803;SDS011;29430;52.924;-2.388;2023-11-18T07:25:40;2.55;;;0.70;;
43803;SDS011;29430;52.924;-2.388;2023-11-18T07:30:34;21.58;;;1.10;;
43803;SDS011;29430;52.924;-2.388;2023-11-18T07:35:28;6.10;;;0.60;;
43803;SDS011;29430;52.924;-2.388;2023-11-18T07:40:21;3.00;;;0.70;;
43803;SDS011;29430;52.924;-2.388;2023-11-18T07:45:19;3.92;;;1.00;;
43803;SDS011;29430;52.924;-2.388;2023-11-18T07:50:14;5.70;;;0.88;;
43803;SDS011;29430;52.924;-2.388;2023-11-18T07:55:07;4.65;;;0.90;;
43803;SDS011;29430;52.924;-2.388;2023-11-18T08:00:02;4.90;;;0.85;;
43803;SDS011;29430;52.924;-2.388;2023-11-18T08:09:52;10.90;;;0.95;;
43803;SDS011;29430;52.924;-2.388;2023-11-18T08:14:44;2.83;;;1.20;;
43803;SDS011;29430;52.924;-2.388;2023-11-18T08:19:35;2.45;;;1.13;;
43803;SDS011;29430;52.924;-2.388;2023-11-18T08:24:27;2.83;;;1.13;;
43803;SDS011;29430;52.924;-2.388;2023-11-18T08:29:20;2.40;;;1.02;;
43803;SDS011;29430;52.924;-2.388;2023-11-18T08:34:12;2.85;;;0.93;;
43803;SDS011;29430;52.924;-2.388;2023-11-18T08:39:05;2.30;;;0.98;;
43803;SDS011;29430;52.924;-2.388;2023-11-18T08:44:01;2.28;;;0.98;;
43803;SDS011;29430;52.924;-2.388;2023-11-18T08:49:12;3.08;;;1.05;;
43803;SDS011;29430;52.924;-2.388;2023-11-18T08:54:04;2.20;;;0.90;;
43803;SDS011;29430;52.924;-2.388;2023-11-18T08:59:13;3.00;;;1.00;;
43803;SDS011;29430;52.924;-2.388;2023-11-18T09:04:08;2.70;;;1.00;;
43803;SDS011;29430;52.924;-2.388;2023-11-18T09:09:01;4.28;;;2.03;;
43803;SDS011;29430;52.924;-2.388;2023-11-18T09:13:57;3.72;;;1.50;;
43803;SDS011;29430;52.924;-2.388;2023-11-18T09:18:52;2.60;;;1.00;;
43803;SDS011;29430;52.924;-2.388;2023-11-18T09:23:44;1.90;;;0.73;;
43803;SDS011;29430;52.924;-2.388;2023-11-18T09:28:39;2.17;;;0.88;;
43803;SDS011;29430;52.924;-2.388;2023-11-18T09:33:32;2.40;;;0.93;;
43803;SDS011;29430;52.924;-2.388;2023-11-18T09:38:28;2.90;;;1.08;;
43803;SDS011;29430;52.924;-2.388;2023-11-18T09:43:21;2.58;;;0.90;;
43803;SDS011;29430;52.924;-2.388;2023-11-18T09:48:16;1.67;;;0.73;;
43803;SDS011;29430;52.924;-2.388;2023-11-18T09:53:11;1.90;;;0.80;;
43803;SDS011;29430;52.924;-2.388;2023-11-18T09:58:04;2.40;;;0.90;;
43803;SDS011;29430;52.924;-2.388;2023-11-18T10:03:00;2.67;;;0.73;;
43803;SDS011;29430;52.924;-2.388;2023-11-18T10:07:52;2.10;;;0.82;;
43803;SDS011;29430;52.924;-2.388;2023-11-18T10:12:45;3.90;;;0.82;;
43803;SDS011;29430;52.924;-2.388;2023-11-18T10:17:44;3.75;;;0.88;;
43803;SDS011;29430;52.924;-2.388;2023-11-18T10:23:08;2.10;;;0.80;;
43803;SDS011;29430;52.924;-2.388;2023-11-18T10:28:04;4.38;;;0.80;;
43803;SDS011;29430;52.924;-2.388;2023-11-18T10:32:57;3.15;;;0.70;;
43803;SDS011;29430;52.924;-2.388;2023-11-18T10:37:56;3.83;;;0.60;;
43803;SDS011;29430;52.924;-2.388;2023-11-18T10:42:50;7.35;;;1.50;;
43803;SDS011;29430;52.924;-2.388;2023-11-18T10:47:44;2.95;;;0.70;;
43803;SDS011;29430;52.924;-2.388;2023-11-18T10:52:38;2.83;;;0.80;;
43803;SDS011;29430;52.924;-2.388;2023-11-18T10:57:33;3.00;;;0.65;;
43803;SDS011;29430;52.924;-2.388;2023-11-18T11:02:29;2.33;;;0.50;;
43803;SDS011;29430;52.924;-2.388;2023-11-18T11:07:26;2.83;;;0.60;;
43803;SDS011;29430;52.924;-2.388;2023-11-18T11:12:21;2.70;;;0.60;;
43803;SDS011;29430;52.924;-2.388;2023-11-18T11:17:16;2.22;;;0.70;;
43803;SDS011;29430;52.924;-2.388;2023-11-18T11:22:19;2.95;;;0.80;;
43803;SDS011;29430;52.924;-2.388;2023-11-18T11:27:38;2.93;;;0.60;;
43803;SDS011;29430;52.924;-2.388;2023-11-18T11:37:43;3.85;;;0.60;;
43803;SDS011;29430;52.924;-2.388;2023-11-18T11:42:35;5.22;;;0.60;;
43803;SDS011;29430;52.924;-2.388;2023-11-18T11:47:27;6.57;;;0.80;;
43803;SDS011;29430;52.924;-2.388;2023-11-18T11:52:30;3.38;;;0.50;;
43803;SDS011;29430;52.924;-2.388;2023-11-18T11:57:29;4.60;;;0.52;;
43803;SDS011;29430;52.924;-2.388;2023-11-18T12:02:26;6.40;;;0.30;;
43803;SDS011;29430;52.924;-2.388;2023-11-18T12:07:21;5.95;;;0.50;;
43803;SDS011;29430;52.924;-2.388;2023-11-18T12:12:17;6.85;;;0.73;;
43803;SDS011;29430;52.924;-2.388;2023-11-18T12:17:11;5.18;;;0.63;;
43803;SDS011;29430;52.924;-2.388;2023-11-18T12:22:06;7.28;;;0.40;;
43803;SDS011;29430;52.924;-2.388;2023-11-18T12:27:04;7.95;;;0.50;;
43803;SDS011;29430;52.924;-2.388;2023-11-18T12:32:02;3.10;;;0.50;;
43803;SDS011;29430;52.924;-2.388;2023-11-18T12:37:02;5.82;;;0.43;;
43803;SDS011;29430;52.924;-2.388;2023-11-18T12:43:05;8.18;;;0.50;;
43803;SDS011;29430;52.924;-2.388;2023-11-18T12:47:49;4.15;;;0.50;;
43803;SDS011;29430;52.924;-2.388;2023-11-18T12:52:46;3.72;;;0.35;;
43803;SDS011;29430;52.924;-2.388;2023-11-18T12:57:45;4.57;;;0.93;;
43803;SDS011;29430;52.924;-2.388;2023-11-18T13:02:37;3.28;;;0.47;;
43803;SDS011;29430;52.924;-2.388;2023-11-18T13:07:30;4.32;;;0.88;;
43803;SDS011;29430;52.924;-2.388;2023-11-18T13:12:22;6.10;;;0.70;;
43803;SDS011;29430;52.924;-2.388;2023-11-18T13:17:15;7.30;;;0.60;;
43803;SDS011;29430;52.924;-2.388;2023-11-18T13:22:09;11.35;;;0.85;;
43803;SDS011;29430;52.924;-2.388;2023-11-18T13:27:05;12.10;;;0.80;;
43803;SDS011;29430;52.924;-2.388;2023-11-18T13:31:58;10.00;;;1.02;;
43803;SDS011;29430;52.924;-2.388;2023-11-18T13:36:51;13.70;;;0.63;;
43803;SDS011;29430;52.924;-2.388;2023-11-18T13:41:43;11.48;;;0.80;;
43803;SDS011;29430;52.924;-2.388;2023-11-18T13:46:39;9.40;;;1.17;;
43803;SDS011;29430;52.924;-2.388;2023-11-18T13:51:33;10.02;;;0.85;;
43803;SDS011;29430;52.924;-2.388;2023-11-18T13:56:27;7.78;;;0.60;;
43803;SDS011;29430;52.924;-2.388;2023-11-18T14:01:20;10.75;;;1.15;;
43803;SDS011;29430;52.924;-2.388;2023-11-18T14:06:13;9.38;;;0.85;;
43803;SDS011;29430;52.924;-2.388;2023-11-18T14:11:08;7.15;;;0.70;;
43803;SDS011;29430;52.924;-2.388;2023-11-18T14:16:07;9.70;;;0.60;;
43803;SDS011;29430;52.924;-2.388;2023-11-18T14:21:01;7.05;;;0.70;;
43803;SDS011;29430;52.924;-2.388;2023-11-18T14:25:53;4.18;;;0.40;;
43803;SDS011;29430;52.924;-2.388;2023-11-18T14:30:45;4.35;;;0.43;;
43803;SDS011;29430;52.924;-2.388;2023-11-18T14:35:36;8.90;;;0.65;;
43803;SDS011;29430;52.924;-2.388;2023-11-18T14:40:29;7.82;;;1.23;;
43803;SDS011;29430;52.924;-2.388;2023-11-18T14:45:20;10.40;;;0.52;;
43803;SDS011;29430;52.924;-2.388;2023-11-18T14:50:13;10.65;;;0.60;;
43803;SDS011;29430;52.924;-2.388;2023-11-18T14:55:15;6.45;;;0.70;;
43803;SDS011;29430;52.924;-2.388;2023-11-18T15:00:08;8.50;;;0.65;;
43803;SDS011;29430;52.924;-2.388;2023-11-18T15:05:03;10.20;;;0.82;;
43803;SDS011;29430;52.924;-2.388;2023-11-18T15:10:00;8.95;;;0.98;;
43803;SDS011;29430;52.924;-2.388;2023-11-18T15:14:52;12.48;;;1.08;;
43803;SDS011;29430;52.924;-2.388;2023-11-18T15:19:44;10.63;;;1.02;;
43803;SDS011;29430;52.924;-2.388;2023-11-18T15:24:35;10.63;;;2.22;;
43803;SDS011;29430;52.924;-2.388;2023-11-18T15:29:27;16.90;;;2.20;;
43803;SDS011;29430;52.924;-2.388;2023-11-18T15:34:24;19.83;;;2.10;;
43803;SDS011;29430;52.924;-2.388;2023-11-18T15:39:16;18.50;;;2.97;;
43803;SDS011;29430;52.924;-2.388;2023-11-18T15:44:08;15.40;;;2.83;;
43803;SDS011;29430;52.924;-2.388;2023-11-18T15:49:04;17.33;;;2.35;;
43803;SDS011;29430;52.924;-2.388;2023-11-18T15:53:56;30.02;;;5.70;;
43803;SDS011;29430;52.924;-2.388;2023-11-18T15:58:48;15.27;;;3.42;;
43803;SDS011;29430;52.924;-2.388;2023-11-18T16:03:40;16.95;;;2.67;;
43803;SDS011;29430;52.924;-2.388;2023-11-18T16:08:32;22.33;;;3.03;;
43803;SDS011;29430;52.924;-2.388;2023-11-18T16:13:26;17.33;;;2.03;;
43803;SDS011;29430;52.924;-2.388;2023-11-18T16:18:17;14.73;;;1.92;;
43803;SDS011;29430;52.924;-2.388;2023-11-18T16:23:09;15.77;;;1.85;;
43803;SDS011;29430;52.924;-2.388;2023-11-18T16:28:01;13.52;;;1.50;;
43803;SDS011;29430;52.924;-2.388;2023-11-18T16:32:54;19.95;;;1.95;;
43803;SDS011;29430;52.924;-2.388;2023-11-18T16:37:50;16.15;;;2.33;;
43803;SDS011;29430;52.924;-2.388;2023-11-18T16:42:46;22.02;;;1.60;;
43803;SDS011;29430;52.924;-2.388;2023-11-18T16:47:39;22.10;;;2.55;;
43803;SDS011;29430;52.924;-2.388;2023-11-18T16:52:31;21.55;;;2.35;;
43803;SDS011;29430;52.924;-2.388;2023-11-18T16:57:23;23.40;;;2.28;;
43803;SDS011;29430;52.924;-2.388;2023-11-18T17:02:17;18.33;;;2.42;;
43803;SDS011;29430;52.924;-2.388;2023-11-18T17:07:13;18.38;;;2.00;;
43803;SDS011;29430;52.924;-2.388;2023-11-18T17:12:05;21.02;;;2.05;;
43803;SDS011;29430;52.924;-2.388;2023-11-18T17:16:57;17.33;;;2.42;;
43803;SDS011;29430;52.924;-2.388;2023-11-18T17:21:49;14.23;;;1.45;;
43803;SDS011;29430;52.924;-2.388;2023-11-18T17:26:43;19.13;;;2.17;;
43803;SDS011;29430;52.924;-2.388;2023-11-18T17:31:35;22.80;;;2.58;;
43803;SDS011;29430;52.924;-2.388;2023-11-18T17:36:28;21.92;;;2.42;;
43803;SDS011;29430;52.924;-2.388;2023-11-18T17:41:21;19.80;;;2.05;;
43803;SDS011;29430;52.924;-2.388;2023-11-18T17:46:13;19.25;;;2.97;;
43803;SDS011;29430;52.924;-2.388;2023-11-18T17:51:05;21.40;;;2.03;;
43803;SDS011;29430;52.924;-2.388;2023-11-18T17:55:57;18.35;;;1.77;;
43803;SDS011;29430;52.924;-2.388;2023-11-18T18:00:50;20.38;;;1.75;;
43803;SDS011;29430;52.924;-2.388;2023-11-18T18:05:41;20.15;;;1.83;;
43803;SDS011;29430;52.924;-2.388;2023-11-18T18:10:34;20.85;;;1.80;;
43803;SDS011;29430;52.924;-2.388;2023-11-18T18:15:25;22.33;;;2.17;;
43803;SDS011;29430;52.924;-2.388;2023-11-18T18:20:18;18.08;;;2.13;;
43803;SDS011;29430;52.924;-2.388;2023-11-18T18:25:11;19.35;;;1.48;;
43803;SDS011;29430;52.924;-2.388;2023-11-18T18:30:04;18.98;;;2.05;;
43803;SDS011;29430;52.924;-2.388;2023-11-18T18:34:57;19.95;;;2.85;;
43803;SDS011;29430;52.924;-2.388;2023-11-18T18:39:49;20.30;;;2.53;;
43803;SDS011;29430;52.924;-2.388;2023-11-18T18:44:44;30.60;;;2.65;;
43803;SDS011;29430;52.924;-2.388;2023-11-18T18:49:35;34.22;;;4.75;;
43803;SDS011;29430;52.924;-2.388;2023-11-18T18:54:27;21.67;;;3.95;;
43803;SDS011;29430;52.924;-2.388;2023-11-18T18:59:19;25.75;;;2.58;;
43803;SDS011;29430;52.924;-2.388;2023-11-18T19:04:11;23.15;;;2.78;;
43803;SDS011;29430;52.924;-2.388;2023-11-18T19:09:03;24.55;;;2.90;;
43803;SDS011;29430;52.924;-2.388;2023-11-18T19:13:55;28.70;;;2.78;;
43803;SDS011;29430;52.924;-2.388;2023-11-18T19:18:47;34.47;;;5.60;;
43803;SDS011;29430;52.924;-2.388;2023-11-18T19:23:39;23.00;;;4.15;;
43803;SDS011;29430;52.924;-2.388;2023-11-18T19:28:31;25.50;;;3.85;;
43803;SDS011;29430;52.924;-2.388;2023-11-18T19:33:23;23.85;;;3.25;;
43803;SDS011;29430;52.924;-2.388;2023-11-18T19:38:15;24.75;;;3.03;;
43803;SDS011;29430;52.924;-2.388;2023-11-18T19:43:06;24.88;;;2.67;;
43803;SDS011;29430;52.924;-2.388;2023-11-18T19:47:58;32.67;;;4.28;;
43803;SDS011;29430;52.924;-2.388;2023-11-18T19:52:50;16.30;;;1.85;;
43803;SDS011;29430;52.924;-2.388;2023-11-18T19:57:41;19.05;;;2.20;;
43803;SDS011;29430;52.924;-2.388;2023-11-18T20:02:33;25.77;;;3.35;;
43803;SDS011;29430;52.924;-2.388;2023-11-18T20:07:26;19.33;;;3.28;;
43803;SDS011;29430;52.924;-2.388;2023-11-18T20:12:18;22.52;;;2.33;;
43803;SDS011;29430;52.924;-2.388;2023-11-18T20:17:10;26.27;;;2.10;;
43803;SDS011;29430;52.924;-2.388;2023-11-18T20:22:02;18.90;;;1.83;;
43803;SDS011;29430;52.924;-2.388;2023-11-18T20:26:54;17.90;;;1.80;;
43803;SDS011;29430;52.924;-2.388;2023-11-18T20:31:46;19.65;;;2.22;;
43803;SDS011;29430;52.924;-2.388;2023-11-18T20:36:37;26.83;;;2.97;;
43803;SDS011;29430;52.924;-2.388;2023-11-18T20:41:29;17.60;;;2.00;;
43803;SDS011;29430;52.924;-2.388;2023-11-18T20:46:21;24.27;;;3.08;;
43803;SDS011;29430;52.924;-2.388;2023-11-18T20:51:13;19.90;;;1.63;;
43803;SDS011;29430;52.924;-2.388;2023-11-18T20:56:05;21.80;;;2.35;;
43803;SDS011;29430;52.924;-2.388;2023-11-18T21:00:58;19.50;;;2.42;;
43803;SDS011;29430;52.924;-2.388;2023-11-18T21:05:50;17.90;;;1.85;;
43803;SDS011;29430;52.924;-2.388;2023-11-18T21:10:42;20.25;;;1.85;;
43803;SDS011;29430;52.924;-2.388;2023-11-18T21:15:34;18.77;;;2.20;;
43803;SDS011;29430;52.924;-2.388;2023-11-18T21:20:28;19.13;;;1.88;;
43803;SDS011;29430;52.924;-2.388;2023-11-18T21:25:19;25.50;;;3.35;;
43803;SDS011;29430;52.924;-2.388;2023-11-18T21:30:11;23.65;;;2.03;;
43803;SDS011;29430;52.924;-2.388;2023-11-18T21:35:03;28.25;;;3.97;;
43803;SDS011;29430;52.924;-2.388;2023-11-18T21:39:55;24.13;;;1.75;;
43803;SDS011;29430;52.924;-2.388;2023-11-18T21:44:47;21.15;;;1.90;;
43803;SDS011;29430;52.924;-2.388;2023-11-18T21:49:38;13.20;;;1.38;;
43803;SDS011;29430;52.924;-2.388;2023-11-18T21:54:31;22.27;;;2.85;;
43803;SDS011;29430;52.924;-2.388;2023-11-18T21:59:24;24.17;;;1.88;;
43803;SDS011;29430;52.924;-2.388;2023-11-18T22:04:17;20.38;;;3.15;;
43803;SDS011;29430;52.924;-2.388;2023-11-18T22:09:09;23.70;;;2.58;;
43803;SDS011;29430;52.924;-2.388;2023-11-18T22:14:01;23.52;;;1.92;;
43803;SDS011;29430;52.924;-2.388;2023-11-18T22:18:54;17.80;;;1.45;;
43803;SDS011;29430;52.924;-2.388;2023-11-18T22:23:46;21.10;;;1.33;;
43803;SDS011;29430;52.924;-2.388;2023-11-18T22:28:37;18.40;;;1.30;;
43803;SDS011;29430;52.924;-2.388;2023-11-18T22:33:30;20.90;;;1.63;;
43803;SDS011;29430;52.924;-2.388;2023-11-18T22:38:22;19.45;;;1.73;;
43803;SDS011;29430;52.924;-2.388;2023-11-18T22:43:14;18.60;;;1.58;;
43803;SDS011;29430;52.924;-2.388;2023-11-18T22:48:06;24.00;;;1.48;;
43803;SDS011;29430;52.924;-2.388;2023-11-18T22:52:58;16.27;;;1.60;;
43803;SDS011;29430;52.924;-2.388;2023-11-18T22:57:49;19.88;;;1.35;;
43803;SDS011;29430;52.924;-2.388;2023-11-18T23:02:41;18.27;;;1.67;;
43803;SDS011;29430;52.924;-2.388;2023-11-18T23:07:33;18.35;;;2.15;;
43803;SDS011;29430;52.924;-2.388;2023-11-18T23:12:25;21.05;;;1.95;;
43803;SDS011;29430;52.924;-2.388;2023-11-18T23:17:18;21.08;;;1.70;;
43803;SDS011;29430;52.924;-2.388;2023-11-18T23:22:12;20.17;;;1.60;;
43803;SDS011;29430;52.924;-2.388;2023-11-18T23:27:05;21.58;;;1.63;;
43803;SDS011;29430;52.924;-2.388;2023-11-18T23:31:58;21.33;;;1.92;;
43803;SDS011;29430;52.924;-2.388;2023-11-18T23:36:50;19.10;;;2.10;;
43803;SDS011;29430;52.924;-2.388;2023-11-18T23:41:42;19.48;;;2.08;;
43803;SDS011;29430;52.924;-2.388;2023-11-18T23:46:34;18.67;;;1.90;;
43803;SDS011;29430;52.924;-2.388;2023-11-18T23:51:26;19.85;;;2.05;;
43803;SDS011;29430;52.924;-2.388;2023-11-18T23:56:19;15.75;;;1.80;;
